-13.81C
пасмурно
пасмурно
Дата и времяТемператураДавление, мм рт.ст.Влажность, %Осадки
МинимумМаксимум
17.02.2020 02:00-15.13C-15.13C77297пасмурно
17.02.2020 05:00-16.13C-16.13C77297облачно с прояснениями
17.02.2020 08:00-16.5C-16.5C77197облачно с прояснениями
17.02.2020 11:00-13.24C-13.24C77195облачно с прояснениями
17.02.2020 14:00-11.14C-11.14C77094облачно с прояснениями
17.02.2020 17:00-13.01C-13.01C76996облачно с прояснениями
17.02.2020 20:00-13.16C-13.16C76797облачно с прояснениями
17.02.2020 23:00-12.49C-12.49C76598облачно с прояснениями
18.02.2020 02:00-12.2C-12.2C76397пасмурно
18.02.2020 05:00-12.32C-12.32C76194пасмурно
18.02.2020 08:00-12.13C-12.13C75791облачно с прояснениями
18.02.2020 11:00-9.24C-9.24C75581пасмурно
18.02.2020 14:00-6.55C-6.55C75278пасмурно
18.02.2020 17:00-6.86C-6.86C75093небольшой снег
18.02.2020 20:00-6.82C-6.82C75093небольшой снег
18.02.2020 23:00-7.09C-7.09C74992небольшой снег
19.02.2020 02:00-8.19C-8.19C74893небольшой снег
19.02.2020 05:00-7.6C-7.6C74794небольшой снег
19.02.2020 08:00-6.16C-6.16C74795небольшой снег
19.02.2020 11:00-2.27C-2.27C74795небольшой снег
19.02.2020 14:00-2.44C-2.44C74794небольшой снег
19.02.2020 17:00-2.77C-2.77C74893небольшой снег
19.02.2020 20:00-3.04C-3.04C74895небольшой снег
19.02.2020 23:00-2.91C-2.91C74896небольшой снег
20.02.2020 02:00-2.79C-2.79C74896небольшой снег
20.02.2020 05:00-2.87C-2.87C74995небольшой снег
20.02.2020 08:00-3.2C-3.2C75096пасмурно
20.02.2020 11:00-2.53C-2.53C75194пасмурно
20.02.2020 14:00-2.31C-2.31C75393пасмурно
20.02.2020 17:00-3.37C-3.37C75394пасмурно
20.02.2020 20:00-4.23C-4.23C75595небольшой снег
20.02.2020 23:00-3C-3C75694небольшой снег
21.02.2020 02:00-3.81C-3.81C75893небольшой снег
21.02.2020 05:00-10.11C-10.11C75990пасмурно
21.02.2020 08:00-11.34C-11.34C76090облачно с прояснениями
21.02.2020 11:00-7.69C-7.69C76193облачно с прояснениями
21.02.2020 14:00-8.15C-8.15C76194небольшой снег
21.02.2020 17:00-9.4C-9.4C76294небольшой снег
21.02.2020 20:00-9.95C-9.95C76294небольшой снег
21.02.2020 23:00-12.39C-12.39C76494небольшой снег
Дата и время наблюдения: 16.02.2020 23:00:36